Time,TemperatureF,DewpointF,PressureIn,WindDirection,WindDirectionDegrees,WindSpeedMPH,WindSpeedGustMPH,Humidity,HourlyPrecipIn,Conditions,Clouds,dailyrainin,SoftwareType,DateUTC
2013-06-22 00:01:00,65.7,64.5,30.04,ENE,64,0.0,0.0,96,0.00,,,0.00,WUHU216DAVISVP2,2013-06-22 04:01:00,
2013-06-22 00:08:00,65.6,64.4,30.04,ENE,64,0.0,0.0,96,0.00,,,0.00,WUHU216DAVISVP2,2013-06-22 04:08:00,
2013-06-22 00:13:00,65.6,64.4,30.04,ENE,64,0.0,0.0,96,0.00,,,0.00,WUHU216DAVISVP2,2013-06-22 04:13:00,
2013-06-22 00:18:00,65.6,64.4,30.04,ENE,64,0.0,0.0,96,0.00,,,0.00,WUHU216DAVISVP2,2013-06-22 04:18:00,
2013-06-22 00:23:00,65.6,64.4,30.03,ENE,64,0.0,0.0,96,0.00,,,0.00,WUHU216DAVISVP2,2013-06-22 04:23:00,
2013-06-22 00:28:00,65.5,64.3,30.03,ENE,65,0.0,0.0,96,0.00,,,0.00,WUHU216DAVISVP2,2013-06-22 04:28:00,
2013-06-22 00:33:00,65.3,64.1,30.03,ENE,65,0.0,0.0,96,0.00,,,0.00,WUHU216DAVISVP2,2013-06-22 04:33:00,
2013-06-22 00:38:00,65.2,64.0,30.03,ENE,64,0.0,0.0,96,0.00,,,0.00,WUHU216DAVISVP2,2013-06-22 04:38:00,
2013-06-22 00:43:00,65.0,63.8,30.03,ENE,65,0.0,0.0,96,0.00,,,0.00,WUHU216DAVISVP2,2013-06-22 04:43:00,
2013-06-22 00:48:00,64.9,63.7,30.03,ENE,64,0.0,0.0,96,0.00,,,0.00,WUHU216DAVISVP2,2013-06-22 04:48:00,
2013-06-22 00:53:00,64.9,63.7,30.02,ENE,64,0.0,0.0,96,0.00,,,0.00,WUHU216DAVISVP2,2013-06-22 04:53:00,
2013-06-22 00:58:00,64.8,63.6,30.02,ENE,65,0.0,0.0,96,0.00,,,0.00,WUHU216DAVISVP2,2013-06-22 04:58:00,
2013-06-22 01:03:00,64.7,63.5,30.02,ENE,65,0.0,1.0,96,0.00,,,0.00,WUHU216DAVISVP2,2013-06-22 05:03:00,
2013-06-22 01:08:00,64.5,63.3,30.02,ENE,65,0.0,1.0,96,0.00,,,0.00,WUHU216DAVISVP2,2013-06-22 05:08:00,
2013-06-22 01:13:00,64.6,63.7,30.02,ENE,65,0.0,2.0,97,0.00,,,0.00,WUHU216DAVISVP2,2013-06-22 05:13:00,
2013-06-22 01:18:00,64.6,63.7,30.02,ENE,65,0.0,2.0,97,0.00,,,0.00,WUHU216DAVISVP2,2013-06-22 05:18:00,
2013-06-22 01:23:00,64.6,63.7,30.02,ENE,65,0.0,0.0,97,0.00,,,0.00,WUHU216DAVISVP2,2013-06-22 05:23:00,
2013-06-22 01:28:00,64.6,63.7,30.02,ENE,65,0.0,0.0,97,0.00,,,0.00,WUHU216DAVISVP2,2013-06-22 05:28:00,
2013-06-22 01:33:00,64.6,63.7,30.01,SE,134,0.0,2.0,97,0.00,,,0.00,WUHU216DAVISVP2,2013-06-22 05:33:00,
2013-06-22 01:38:00,64.6,63.7,30.01,SE,134,0.0,2.0,97,0.00,,,0.00,WUHU216DAVISVP2,2013-06-22 05:38:00,
2013-06-22 01:43:00,64.5,63.6,30.01,SE,133,0.0,0.0,97,0.00,,,0.00,WUHU216DAVISVP2,2013-06-22 05:43:00,
2013-06-22 01:48:00,64.4,63.5,30.01,SE,134,0.0,0.0,97,0.00,,,0.00,WUHU216DAVISVP2,2013-06-22 05:48:00,
2013-06-22 01:53:00,64.5,63.6,30.01,SE,134,0.0,0.0,97,0.00,,,0.00,WUHU216DAVISVP2,2013-06-22 05:53:00,
2013-06-22 01:58:00,64.5,63.6,30.00,SE,133,0.0,0.0,97,0.00,,,0.00,WUHU216DAVISVP2,2013-06-22 05:58:00,
2013-06-22 02:03:00,64.8,63.9,30.00,SSE,166,0.0,4.0,97,0.00,,,0.00,WUHU216DAVISVP2,2013-06-22 06:03:00,
2013-06-22 02:08:00,65.1,64.2,29.99,SSE,166,0.0,4.0,97,0.00,,,0.00,WUHU216DAVISVP2,2013-06-22 06:08:00,
2013-06-22 02:13:00,65.2,64.3,29.99,South,173,0.0,2.0,97,0.00,,,0.00,WUHU216DAVISVP2,2013-06-22 06:13:00,
2013-06-22 02:18:00,65.6,64.7,29.99,South,177,0.0,4.0,97,0.00,,,0.00,WUHU216DAVISVP2,2013-06-22 06:18:00,
2013-06-22 02:23:00,65.9,65.0,29.99,SSE,168,0.0,5.0,97,0.00,,,0.00,WUHU216DAVISVP2,2013-06-22 06:23:00,
2013-06-22 02:28:00,66.1,64.9,29.98,South,169,0.0,6.0,96,0.00,,,0.00,WUHU216DAVISVP2,2013-06-22 06:28:00,
2013-06-22 02:33:00,66.7,65.2,29.98,SSE,160,0.0,6.0,95,0.00,,,0.00,WUHU216DAVISVP2,2013-06-22 06:33:00,
2013-06-22 02:38:00,66.9,65.4,29.98,SE,144,0.0,6.0,95,0.00,,,0.00,WUHU216DAVISVP2,2013-06-22 06:38:00,
2013-06-22 02:43:00,67.1,65.3,29.97,SSW,209,1.0,6.0,94,0.00,,,0.00,WUHU216DAVISVP2,2013-06-22 06:43:00,
2013-06-22 02:48:00,67.2,65.1,29.97,SSW,198,2.0,5.0,93,0.00,,,0.00,WUHU216DAVISVP2,2013-06-22 06:48:00,
2013-06-22 02:53:00,67.3,65.2,29.97,South,175,2.0,4.0,93,0.00,,,0.00,WUHU216DAVISVP2,2013-06-22 06:53:00,
2013-06-22 02:58:00,67.4,65.3,29.97,South,175,0.0,4.0,93,0.00,,,0.00,WUHU216DAVISVP2,2013-06-22 06:58:00,
2013-06-22 03:03:00,67.2,65.1,29.97,South,182,1.0,4.0,93,0.00,,,0.00,WUHU216DAVISVP2,2013-06-22 07:03:00,
2013-06-22 03:08:00,67.2,65.1,29.97,South,182,0.0,4.0,93,0.00,,,0.00,WUHU216DAVISVP2,2013-06-22 07:08:00,
2013-06-22 03:13:00,67.2,65.1,29.97,ESE,111,0.0,7.0,93,0.00,,,0.00,WUHU216DAVISVP2,2013-06-22 07:13:00,
2013-06-22 03:18:00,67.2,65.1,29.97,ESE,111,0.0,7.0,93,0.00,,,0.00,WUHU216DAVISVP2,2013-06-22 07:18:00,
2013-06-22 03:23:00,67.2,65.1,29.97,South,173,0.0,4.0,93,0.00,,,0.00,WUHU216DAVISVP2,2013-06-22 07:23:00,
2013-06-22 03:28:00,67.2,65.1,29.97,SSW,204,5.0,5.0,93,0.00,,,0.00,WUHU216DAVISVP2,2013-06-22 07:28:00,
2013-06-22 03:33:00,67.4,65.3,29.96,SE,144,2.0,7.0,93,0.00,,,0.00,WUHU216DAVISVP2,2013-06-22 07:33:00,
2013-06-22 03:38:00,67.6,65.2,29.97,SSE,164,1.0,7.0,92,0.00,,,0.00,WUHU216DAVISVP2,2013-06-22 07:38:00,
2013-06-22 03:43:00,67.8,65.4,29.96,South,176,1.0,6.0,92,0.00,,,0.00,WUHU216DAVISVP2,2013-06-22 07:43:00,
2013-06-22 03:48:00,68.1,65.3,29.97,SSW,192,1.0,5.0,91,0.00,,,0.00,WUHU216DAVISVP2,2013-06-22 07:48:00,
2013-06-22 03:53:00,68.3,65.5,29.97,SE,145,6.0,7.0,91,0.00,,,0.00,WUHU216DAVISVP2,2013-06-22 07:53:00,
2013-06-22 03:58:00,68.3,65.5,29.96,SSE,163,4.0,7.0,91,0.00,,,0.00,WUHU216DAVISVP2,2013-06-22 07:58:00,
2013-06-22 04:03:00,68.2,65.1,29.96,SE,138,4.0,6.0,90,0.00,,,0.00,WUHU216DAVISVP2,2013-06-22 08:03:00,
2013-06-22 04:08:00,68.1,65.3,29.96,SE,145,0.0,6.0,91,0.00,,,0.00,WUHU216DAVISVP2,2013-06-22 08:08:00,
2013-06-22 04:13:00,68.0,65.2,29.96,SSE,158,0.0,5.0,91,0.00,,,0.00,WUHU216DAVISVP2,2013-06-22 08:13:00,
2013-06-22 04:18:00,67.9,65.2,29.96,SSE,164,1.0,4.0,91,0.00,,,0.00,WUHU216DAVISVP2,2013-06-22 08:18:00,
2013-06-22 04:23:00,67.8,65.1,29.97,SSE,165,0.0,4.0,91,0.00,,,0.00,WUHU216DAVISVP2,2013-06-22 08:23:00,
2013-06-22 04:28:00,67.7,65.0,29.96,SSE,165,0.0,4.0,91,0.00,,,0.00,WUHU216DAVISVP2,2013-06-22 08:28:00,
2013-06-22 04:33:00,67.5,65.1,29.96,SSE,163,1.0,2.0,92,0.00,,,0.00,WUHU216DAVISVP2,2013-06-22 08:33:00,
2013-06-22 04:38:00,67.3,64.9,29.96,South,175,0.0,4.0,92,0.00,,,0.00,WUHU216DAVISVP2,2013-06-22 08:38:00,
2013-06-22 04:43:00,67.2,65.1,29.96,SSW,194,1.0,6.0,93,0.00,,,0.00,WUHU216DAVISVP2,2013-06-22 08:43:00,
2013-06-22 04:48:00,67.3,65.2,29.96,South,169,1.0,6.0,93,0.00,,,0.00,WUHU216DAVISVP2,2013-06-22 08:48:00,
2013-06-22 04:53:00,67.5,65.1,29.96,SSE,157,4.0,6.0,92,0.00,,,0.00,WUHU216DAVISVP2,2013-06-22 08:53:00,
2013-06-22 04:58:00,67.6,65.2,29.96,South,176,2.0,5.0,92,0.00,,,0.00,WUHU216DAVISVP2,2013-06-22 08:58:00,
2013-06-22 05:03:00,67.7,65.3,29.96,SW,215,1.0,6.0,92,0.00,,,0.00,WUHU216DAVISVP2,2013-06-22 09:03:00,
2013-06-22 05:08:00,68.0,65.3,29.96,East,93,0.0,7.0,91,0.00,,,0.00,WUHU216DAVISVP2,2013-06-22 09:08:00,
2013-06-22 05:13:00,68.3,65.6,29.96,South,185,2.0,7.0,91,0.00,,,0.00,WUHU216DAVISVP2,2013-06-22 09:13:00,
2013-06-22 05:18:00,68.5,65.8,29.97,SSW,203,2.0,7.0,91,0.00,,,0.00,WUHU216DAVISVP2,2013-06-22 09:18:00,
2013-06-22 05:23:00,68.7,65.6,29.97,SSW,195,0.0,6.0,90,0.00,,,0.00,WUHU216DAVISVP2,2013-06-22 09:23:00,
2013-06-22 05:28:00,69.0,65.9,29.97,South,175,2.0,8.0,90,0.00,,,0.00,WUHU216DAVISVP2,2013-06-22 09:28:00,
2013-06-22 05:33:00,69.2,66.1,29.97,South,182,0.0,8.0,90,0.00,,,0.00,WUHU216DAVISVP2,2013-06-22 09:33:00,
2013-06-22 05:38:00,69.4,66.0,29.97,South,179,4.0,10.0,89,0.00,,,0.00,WUHU216DAVISVP2,2013-06-22 09:38:00,
2013-06-22 05:43:00,69.5,65.8,29.96,SSE,155,5.0,10.0,88,0.00,,,0.00,WUHU216DAVISVP2,2013-06-22 09:43:00,
2013-06-22 05:49:00,69.6,65.9,29.96,SSW,200,2.0,8.0,88,0.00,,,0.00,WUHU216DAVISVP2,2013-06-22 09:49:00,
2013-06-22 05:54:00,69.6,65.9,29.96,SSE,153,4.0,7.0,88,0.00,,,0.00,WUHU216DAVISVP2,2013-06-22 09:54:00,
2013-06-22 05:59:00,69.5,65.8,29.96,SSW,194,5.0,7.0,88,0.00,,,0.00,WUHU216DAVISVP2,2013-06-22 09:59:00,
2013-06-22 06:04:00,69.5,65.8,29.96,South,180,1.0,7.0,88,0.00,,,0.00,WUHU216DAVISVP2,2013-06-22 10:04:00,
2013-06-22 06:09:00,69.5,66.1,29.97,SSE,160,2.0,7.0,89,0.00,,,0.00,WUHU216DAVISVP2,2013-06-22 10:09:00,
2013-06-22 06:14:00,69.5,65.8,29.98,South,178,0.0,5.0,88,0.00,,,0.00,WUHU216DAVISVP2,2013-06-22 10:14:00,
2013-06-22 06:19:00,69.4,66.0,29.98,South,173,0.0,2.0,89,0.00,,,0.00,WUHU216DAVISVP2,2013-06-22 10:19:00,
2013-06-22 06:24:00,69.3,65.9,29.98,SE,140,0.0,4.0,89,0.00,,,0.00,WUHU216DAVISVP2,2013-06-22 10:24:00,
2013-06-22 06:29:00,69.2,65.8,29.98,SE,140,0.0,4.0,89,0.00,,,0.00,WUHU216DAVISVP2,2013-06-22 10:29:00,
2013-06-22 06:34:00,69.0,65.9,29.98,SE,140,0.0,1.0,90,0.00,,,0.00,WUHU216DAVISVP2,2013-06-22 10:34:00,
2013-06-22 06:39:00,68.9,65.8,29.98,SE,140,0.0,1.0,90,0.00,,,0.00,WUHU216DAVISVP2,2013-06-22 10:39:00,
2013-06-22 06:44:00,68.8,66.0,29.98,SE,140,0.0,1.0,91,0.00,,,0.00,WUHU216DAVISVP2,2013-06-22 10:44:00,
2013-06-22 06:49:00,68.6,65.8,29.98,SE,140,0.0,0.0,91,0.00,,,0.00,WUHU216DAVISVP2,2013-06-22 10:49:00,
2013-06-22 06:54:00,68.4,66.0,29.98,SE,140,1.0,2.0,92,0.00,,,0.00,WUHU216DAVISVP2,2013-06-22 10:54:00,
2013-06-22 06:59:00,68.3,65.9,30.00,NNW,345,0.0,5.0,92,0.00,,,0.00,WUHU216DAVISVP2,2013-06-22 10:59:00,
2013-06-22 07:04:00,68.3,65.9,30.00,NNW,345,0.0,5.0,92,0.00,,,0.00,WUHU216DAVISVP2,2013-06-22 11:04:00,
2013-06-22 07:09:00,68.3,66.2,30.00,NNW,346,0.0,4.0,93,0.00,,,0.00,WUHU216DAVISVP2,2013-06-22 11:09:00,
2013-06-22 07:14:00,68.3,66.2,30.01,ENE,59,0.0,4.0,93,0.00,,,0.00,WUHU216DAVISVP2,2013-06-22 11:14:00,
2013-06-22 07:19:00,68.4,66.3,30.00,SE,134,0.0,4.0,93,0.00,,,0.00,WUHU216DAVISVP2,2013-06-22 11:19:00,
2013-06-22 07:24:00,68.5,66.4,30.01,North,360,0.0,5.0,93,0.00,,,0.00,WUHU216DAVISVP2,2013-06-22 11:24:00,
2013-06-22 07:29:00,68.6,66.5,30.00,ESE,123,0.0,5.0,93,0.00,,,0.00,WUHU216DAVISVP2,2013-06-22 11:29:00,
2013-06-22 07:34:00,68.7,66.9,30.01,North,355,0.0,5.0,94,0.00,,,0.00,WUHU216DAVISVP2,2013-06-22 11:34:00,
2013-06-22 07:39:00,68.8,67.0,30.01,North,355,1.0,5.0,94,0.00,,,0.00,WUHU216DAVISVP2,2013-06-22 11:39:00,
2013-06-22 07:44:00,69.0,67.2,30.02,North,355,2.0,5.0,94,0.00,,,0.00,WUHU216DAVISVP2,2013-06-22 11:44:00,
2013-06-22 07:49:00,69.0,67.2,30.01,North,355,2.0,5.0,94,0.00,,,0.00,WUHU216DAVISVP2,2013-06-22 11:49:00,
2013-06-22 07:54:00,69.2,67.4,30.02,North,355,1.0,2.0,94,0.00,,,0.00,WUHU216DAVISVP2,2013-06-22 11:54:00,
2013-06-22 07:59:00,69.4,67.6,30.02,North,355,0.0,2.0,94,0.00,,,0.00,WUHU216DAVISVP2,2013-06-22 11:59:00,
2013-06-22 08:04:00,69.6,67.8,30.01,North,355,0.0,2.0,94,0.00,,,0.00,WUHU216DAVISVP2,2013-06-22 12:04:00,
2013-06-22 08:09:00,69.8,68.0,30.02,North,355,0.0,1.0,94,0.00,,,0.00,WUHU216DAVISVP2,2013-06-22 12:09:00,
2013-06-22 08:14:00,70.0,67.9,30.02,North,355,0.0,1.0,93,0.00,,,0.00,WUHU216DAVISVP2,2013-06-22 12:14:00,
2013-06-22 08:19:00,70.3,68.1,30.01,SE,141,2.0,5.0,93,0.00,,,0.00,WUHU216DAVISVP2,2013-06-22 12:19:00,
2013-06-22 08:24:00,70.5,68.0,30.02,SSE,151,0.0,5.0,92,0.00,,,0.00,WUHU216DAVISVP2,2013-06-22 12:24:00,
2013-06-22 08:29:00,70.7,68.2,30.01,SW,234,1.0,4.0,92,0.00,,,0.00,WUHU216DAVISVP2,2013-06-22 12:29:00,
2013-06-22 08:34:00,71.0,68.2,30.01,SW,234,1.0,1.0,91,0.00,,,0.00,WUHU216DAVISVP2,2013-06-22 12:34:00,
2013-06-22 08:39:00,71.2,68.4,30.01,South,173,2.0,5.0,91,0.00,,,0.00,WUHU216DAVISVP2,2013-06-22 12:39:00,
2013-06-22 08:44:00,71.3,68.2,30.01,SSE,155,1.0,6.0,90,0.00,,,0.00,WUHU216DAVISVP2,2013-06-22 12:44:00,
2013-06-22 08:49:00,71.6,68.5,30.00,SW,221,0.0,6.0,90,0.00,,,0.00,WUHU216DAVISVP2,2013-06-22 12:49:00,
2013-06-22 08:54:00,71.8,68.7,30.00,South,169,4.0,6.0,90,0.00,,,0.00,WUHU216DAVISVP2,2013-06-22 12:54:00,
2013-06-22 08:59:00,72.1,69.0,30.01,North,11,0.0,5.0,90,0.00,,,0.00,WUHU216DAVISVP2,2013-06-22 12:59:00,
2013-06-22 09:04:00,72.4,69.0,30.01,WSW,257,0.0,5.0,89,0.00,,,0.00,WUHU216DAVISVP2,2013-06-22 13:04:00,
2013-06-22 09:09:00,72.8,69.4,30.02,SSE,163,0.0,5.0,89,0.00,,,0.00,WUHU216DAVISVP2,2013-06-22 13:09:00,
2013-06-22 09:14:00,73.2,69.4,30.02,SSE,159,1.0,5.0,88,0.00,,,0.00,WUHU216DAVISVP2,2013-06-22 13:14:00,
2013-06-22 09:19:00,73.6,69.8,30.02,West,261,3.0,3.0,88,0.00,,,0.00,WUHU216DAVISVP2,2013-06-22 13:19:00,
2013-06-22 09:24:00,74.1,70.0,30.02,SE,140,0.0,4.0,87,0.00,,,0.00,WUHU216DAVISVP2,2013-06-22 13:24:00,
2013-06-22 09:29:00,74.6,70.2,30.02,WNW,295,7.0,7.0,86,0.00,,,0.00,WUHU216DAVISVP2,2013-06-22 13:29:00,
2013-06-22 09:34:00,74.9,70.1,30.02,SW,227,1.0,7.0,85,0.00,,,0.00,WUHU216DAVISVP2,2013-06-22 13:34:00,
2013-06-22 09:39:00,75.2,70.4,30.03,NW,312,4.0,7.0,85,0.00,,,0.00,WUHU216DAVISVP2,2013-06-22 13:39:00,
2013-06-22 09:44:00,75.4,70.2,30.03,NE,42,0.0,6.0,84,0.00,,,0.00,WUHU216DAVISVP2,2013-06-22 13:44:00,
2013-06-22 09:49:00,75.6,70.4,30.03,ENE,60,0.0,6.0,84,0.00,,,0.00,WUHU216DAVISVP2,2013-06-22 13:49:00,
2013-06-22 09:54:00,75.7,70.2,30.03,WSW,253,1.0,6.0,83,0.00,,,0.00,WUHU216DAVISVP2,2013-06-22 13:54:00,
2013-06-22 09:59:00,75.8,70.3,30.03,SW,236,2.0,10.0,83,0.00,,,0.00,WUHU216DAVISVP2,2013-06-22 13:59:00,
2013-06-22 10:04:00,75.9,70.0,30.03,SSE,160,7.0,10.0,82,0.00,,,0.00,WUHU216DAVISVP2,2013-06-22 14:04:00,
2013-06-22 10:09:00,76.0,70.8,30.03,SW,218,0.0,7.0,84,0.00,,,0.00,WUHU216DAVISVP2,2013-06-22 14:09:00,
2013-06-22 10:14:00,76.1,70.6,30.03,WNW,299,0.0,6.0,83,0.00,,,0.00,WUHU216DAVISVP2,2013-06-22 14:14:00,
2013-06-22 10:19:00,76.3,70.8,30.02,SSW,207,0.0,6.0,83,0.00,,,0.00,WUHU216DAVISVP2,2013-06-22 14:19:00,
2013-06-22 10:24:00,76.3,70.5,30.02,WSW,251,0.0,6.0,82,0.00,,,0.00,WUHU216DAVISVP2,2013-06-22 14:24:00,
2013-06-22 10:29:00,76.4,70.6,30.02,SSW,211,0.0,5.0,82,0.00,,,0.00,WUHU216DAVISVP2,2013-06-22 14:29:00,
2013-06-22 10:34:00,76.6,70.8,30.01,WNW,290,7.0,7.0,82,0.00,,,0.00,WUHU216DAVISVP2,2013-06-22 14:34:00,
2013-06-22 10:39:00,76.8,71.3,30.01,SSW,202,2.0,7.0,83,0.00,,,0.00,WUHU216DAVISVP2,2013-06-22 14:39:00,
2013-06-22 10:44:00,77.0,70.5,30.01,SW,236,3.0,5.0,80,0.00,,,0.00,WUHU216DAVISVP2,2013-06-22 14:44:00,
2013-06-22 10:49:00,77.2,71.0,30.02,WSW,256,0.0,8.0,81,0.00,,,0.00,WUHU216DAVISVP2,2013-06-22 14:49:00,
2013-06-22 10:54:00,77.5,71.3,30.02,North,9,1.0,8.0,81,0.00,,,0.00,WUHU216DAVISVP2,2013-06-22 14:54:00,
2013-06-22 10:59:00,77.6,71.4,30.01,SSE,165,4.0,5.0,81,0.00,,,0.00,WUHU216DAVISVP2,2013-06-22 14:59:00,
2013-06-22 11:04:00,77.8,71.9,30.01,North,360,0.0,5.0,82,0.00,,,0.00,WUHU216DAVISVP2,2013-06-22 15:04:00,
2013-06-22 11:09:00,78.0,71.1,30.02,West,271,1.0,5.0,79,0.00,,,0.00,WUHU216DAVISVP2,2013-06-22 15:09:00,
2013-06-22 11:14:00,78.1,71.5,30.02,South,178,2.0,5.0,80,0.00,,,0.00,WUHU216DAVISVP2,2013-06-22 15:14:00,
2013-06-22 11:19:00,78.2,71.6,30.02,WSW,241,2.0,5.0,80,0.00,,,0.00,WUHU216DAVISVP2,2013-06-22 15:19:00,
2013-06-22 11:24:00,78.1,71.2,30.02,East,98,0.0,5.0,79,0.00,,,0.00,WUHU216DAVISVP2,2013-06-22 15:24:00,
2013-06-22 11:29:00,78.2,72.0,30.02,SSE,150,2.0,4.0,81,0.00,,,0.00,WUHU216DAVISVP2,2013-06-22 15:29:00,
2013-06-22 11:34:00,78.2,71.6,30.02,South,177,1.0,5.0,80,0.00,,,0.00,WUHU216DAVISVP2,2013-06-22 15:34:00,
2013-06-22 11:39:00,78.1,71.5,30.01,South,177,4.0,5.0,80,0.00,,,0.00,WUHU216DAVISVP2,2013-06-22 15:39:00,
2013-06-22 11:44:00,77.9,71.7,30.01,SSE,156,2.0,5.0,81,0.00,,,0.00,WUHU216DAVISVP2,2013-06-22 15:44:00,
2013-06-22 11:49:00,77.8,71.9,30.01,South,172,5.0,6.0,82,0.00,,,0.00,WUHU216DAVISVP2,2013-06-22 15:49:00,
2013-06-22 11:54:00,77.8,71.6,30.01,SE,144,5.0,6.0,81,0.00,,,0.00,WUHU216DAVISVP2,2013-06-22 15:54:00,
2013-06-22 11:59:00,77.8,71.1,30.01,SSE,159,0.0,6.0,80,0.00,,,0.00,WUHU216DAVISVP2,2013-06-22 15:59:00,
2013-06-22 12:04:00,78.1,72.2,30.02,SW,232,1.0,6.0,82,0.00,,,0.00,WUHU216DAVISVP2,2013-06-22 16:04:00,
2013-06-22 12:09:00,78.4,72.1,30.02,SW,215,1.0,5.0,81,0.00,,,0.00,WUHU216DAVISVP2,2013-06-22 16:09:00,
2013-06-22 12:14:00,78.5,71.8,30.02,NE,40,0.0,7.0,80,0.00,,,0.00,WUHU216DAVISVP2,2013-06-22 16:14:00,
2013-06-22 12:19:00,78.5,71.8,30.02,SW,214,0.0,7.0,80,0.00,,,0.00,WUHU216DAVISVP2,2013-06-22 16:19:00,
2013-06-22 12:24:00,78.6,71.5,30.02,South,184,2.0,6.0,79,0.00,,,0.00,WUHU216DAVISVP2,2013-06-22 16:24:00,
2013-06-22 12:29:00,78.8,72.1,30.02,South,191,3.0,5.0,80,0.00,,,0.00,WUHU216DAVISVP2,2013-06-22 16:29:00,
2013-06-22 12:34:00,78.8,71.7,30.02,South,191,2.0,7.0,79,0.00,,,0.00,WUHU216DAVISVP2,2013-06-22 16:34:00,
2013-06-22 12:39:00,78.7,71.6,30.02,South,175,5.0,7.0,79,0.00,,,0.00,WUHU216DAVISVP2,2013-06-22 16:39:00,
2013-06-22 12:44:00,78.7,72.0,30.02,SW,233,3.0,5.0,80,0.00,,,0.00,WUHU216DAVISVP2,2013-06-22 16:44:00,
2013-06-22 12:49:00,78.9,72.6,30.02,SSW,194,2.0,5.0,81,0.00,,,0.00,WUHU216DAVISVP2,2013-06-22 16:49:00,
2013-06-22 12:54:00,78.9,72.2,30.01,South,188,1.0,5.0,80,0.00,,,0.00,WUHU216DAVISVP2,2013-06-22 16:54:00,
2013-06-22 12:59:00,78.9,72.9,30.01,South,172,0.0,6.0,82,0.00,,,0.00,WUHU216DAVISVP2,2013-06-22 16:59:00,
2013-06-22 13:04:00,79.0,72.1,30.01,WSW,239,3.0,6.0,79,0.00,,,0.00,WUHU216DAVISVP2,2013-06-22 17:04:00,
2013-06-22 13:09:00,79.0,72.1,30.01,ENE,67,3.0,6.0,79,0.00,,,0.00,WUHU216DAVISVP2,2013-06-22 17:09:00,
2013-06-22 13:15:00,79.1,72.5,30.01,SSE,148,1.0,6.0,80,0.00,,,0.00,WUHU216DAVISVP2,2013-06-22 17:15:00,
2013-06-22 13:20:00,79.5,72.9,30.01,SSE,152,2.0,4.0,80,0.00,,,0.00,WUHU216DAVISVP2,2013-06-22 17:20:00,
2013-06-22 13:26:00,79.6,72.3,30.01,SSE,161,5.0,7.0,78,0.00,,,0.00,WUHU216DAVISVP2,2013-06-22 17:26:00,
2013-06-22 13:31:00,79.6,72.3,30.01,North,355,2.0,7.0,78,0.00,,,0.00,WUHU216DAVISVP2,2013-06-22 17:31:00,
2013-06-22 13:36:00,79.9,73.3,30.01,SE,145,2.0,6.0,80,0.00,,,0.00,WUHU216DAVISVP2,2013-06-22 17:36:00,
2013-06-22 13:41:00,80.0,73.0,30.01,SSE,156,1.0,5.0,79,0.00,,,0.00,WUHU216DAVISVP2,2013-06-22 17:41:00,
2013-06-22 13:46:00,80.4,72.3,30.01,SW,227,2.0,6.0,76,0.00,,,0.00,WUHU216DAVISVP2,2013-06-22 17:46:00,
2013-06-22 13:51:00,80.7,72.2,30.02,SW,220,1.0,6.0,75,0.00,,,0.00,WUHU216DAVISVP2,2013-06-22 17:51:00,
2013-06-22 13:56:00,80.7,72.6,30.01,SSE,165,2.0,7.0,76,0.00,,,0.00,WUHU216DAVISVP2,2013-06-22 17:56:00,
2013-06-22 14:01:00,80.8,73.1,30.01,SSE,165,4.0,7.0,77,0.00,,,0.00,WUHU216DAVISVP2,2013-06-22 18:01:00,
2013-06-22 14:06:00,81.1,73.0,30.02,South,175,2.0,5.0,76,0.00,,,0.00,WUHU216DAVISVP2,2013-06-22 18:06:00,
2013-06-22 14:11:00,81.2,73.5,30.01,South,176,2.0,4.0,77,0.00,,,0.00,WUHU216DAVISVP2,2013-06-22 18:11:00,
2013-06-22 14:16:00,81.6,73.8,30.01,South,176,1.0,4.0,77,0.00,,,0.00,WUHU216DAVISVP2,2013-06-22 18:16:00,
2013-06-22 14:21:00,81.6,73.8,30.02,SSE,159,5.0,6.0,77,0.00,,,0.00,WUHU216DAVISVP2,2013-06-22 18:21:00,
2013-06-22 14:26:00,81.4,72.9,30.01,SSE,164,2.0,6.0,75,0.00,,,0.00,WUHU216DAVISVP2,2013-06-22 18:26:00,
2013-06-22 14:31:00,81.6,73.5,30.01,SE,146,4.0,5.0,76,0.00,,,0.00,WUHU216DAVISVP2,2013-06-22 18:31:00,
2013-06-22 14:36:00,81.7,73.9,30.02,SSW,193,0.0,5.0,77,0.00,,,0.00,WUHU216DAVISVP2,2013-06-22 18:36:00,
2013-06-22 14:41:00,81.8,73.7,30.01,SSE,160,4.0,5.0,76,0.00,,,0.00,WUHU216DAVISVP2,2013-06-22 18:41:00,
2013-06-22 14:46:00,82.0,73.9,30.00,SW,220,1.0,5.0,76,0.00,,,0.00,WUHU216DAVISVP2,2013-06-22 18:46:00,
2013-06-22 14:51:00,82.4,74.6,30.00,WSW,245,3.0,4.0,77,0.00,,,0.00,WUHU216DAVISVP2,2013-06-22 18:51:00,
2013-06-22 14:56:00,82.9,74.3,29.99,WSW,247,0.0,4.0,75,0.00,,,0.00,WUHU216DAVISVP2,2013-06-22 18:56:00,
2013-06-22 15:01:00,83.2,74.3,29.99,SSE,155,1.0,5.0,74,0.00,,,0.00,WUHU216DAVISVP2,2013-06-22 19:01:00,
2013-06-22 15:06:00,83.4,73.6,30.00,SSE,165,0.0,5.0,72,0.00,,,0.00,WUHU216DAVISVP2,2013-06-22 19:06:00,
2013-06-22 15:11:00,84.0,74.2,29.99,West,281,2.0,9.0,72,0.00,,,0.00,WUHU216DAVISVP2,2013-06-22 19:11:00,
2013-06-22 15:16:00,84.4,74.6,29.99,WSW,238,3.0,9.0,72,0.00,,,0.00,WUHU216DAVISVP2,2013-06-22 19:16:00,
2013-06-22 15:21:00,84.5,73.5,29.99,SSW,211,0.0,5.0,69,0.00,,,0.00,WUHU216DAVISVP2,2013-06-22 19:21:00,
2013-06-22 15:26:00,84.8,76.6,29.98,WSW,248,2.0,5.0,76,0.00,,,0.00,WUHU216DAVISVP2,2013-06-22 19:26:00,
2013-06-22 15:31:00,85.0,73.9,29.98,SW,236,0.0,5.0,69,0.00,,,0.00,WUHU216DAVISVP2,2013-06-22 19:31:00,
2013-06-22 15:36:00,84.9,73.0,29.98,WNW,284,2.0,6.0,67,0.00,,,0.00,WUHU216DAVISVP2,2013-06-22 19:36:00,
2013-06-22 15:41:00,84.8,74.2,29.97,ESE,122,4.0,6.0,70,0.00,,,0.00,WUHU216DAVISVP2,2013-06-22 19:41:00,
2013-06-22 15:46:00,84.6,74.0,29.97,WSW,238,2.0,6.0,70,0.00,,,0.00,WUHU216DAVISVP2,2013-06-22 19:46:00,
2013-06-22 15:51:00,84.6,74.0,29.97,South,182,2.0,3.0,70,0.00,,,0.00,WUHU216DAVISVP2,2013-06-22 19:51:00,
2013-06-22 15:56:00,84.5,73.9,29.96,South,177,0.0,4.0,70,0.00,,,0.00,WUHU216DAVISVP2,2013-06-22 19:56:00,
2013-06-22 16:01:00,84.1,73.5,29.96,South,180,3.0,5.0,70,0.00,,,0.00,WUHU216DAVISVP2,2013-06-22 20:01:00,
2013-06-22 16:06:00,83.9,74.3,29.96,SSE,163,4.0,5.0,73,0.00,,,0.00,WUHU216DAVISVP2,2013-06-22 20:06:00,
2013-06-22 16:11:00,83.9,73.5,29.95,West,264,1.0,5.0,71,0.00,,,0.00,WUHU216DAVISVP2,2013-06-22 20:11:00,
2013-06-22 16:16:00,83.8,73.4,29.95,SW,215,2.0,5.0,71,0.00,,,0.00,WUHU216DAVISVP2,2013-06-22 20:16:00,
2013-06-22 16:21:00,83.8,73.4,29.95,SSW,210,0.0,5.0,71,0.00,,,0.00,WUHU216DAVISVP2,2013-06-22 20:21:00,
2013-06-22 16:26:00,83.5,73.7,29.94,SSW,198,0.0,4.0,72,0.00,,,0.00,WUHU216DAVISVP2,2013-06-22 20:26:00,
2013-06-22 16:31:00,83.3,73.6,29.93,SSW,206,0.0,4.0,72,0.00,,,0.00,WUHU216DAVISVP2,2013-06-22 20:31:00,
2013-06-22 16:36:00,82.9,73.6,29.94,NNW,342,2.0,4.0,73,0.00,,,0.00,WUHU216DAVISVP2,2013-06-22 20:36:00,
2013-06-22 16:41:00,82.7,74.2,29.93,ESE,102,1.0,4.0,75,0.00,,,0.00,WUHU216DAVISVP2,2013-06-22 20:41:00,
2013-06-22 16:46:00,82.5,73.6,29.93,ESE,102,0.0,4.0,74,0.00,,,0.00,WUHU216DAVISVP2,2013-06-22 20:46:00,
2013-06-22 16:51:00,82.5,74.0,29.93,East,98,2.0,4.0,75,0.00,,,0.00,WUHU216DAVISVP2,2013-06-22 20:51:00,
2013-06-22 16:56:00,82.5,73.6,29.93,North,5,1.0,4.0,74,0.00,,,0.00,WUHU216DAVISVP2,2013-06-22 20:56:00,
2013-06-22 17:01:00,82.5,73.4,29.94,NW,319,2.0,4.0,74,0.00,,,0.00,WUHU216DAVISVP2,2013-06-22 21:01:00,
2013-06-22 17:06:00,82.4,73.7,29.93,WSW,257,1.0,4.0,75,0.00,,,0.00,WUHU216DAVISVP2,2013-06-22 21:06:00,
2013-06-22 17:11:00,82.2,73.9,29.92,West,264,0.0,4.0,76,0.00,,,0.00,WUHU216DAVISVP2,2013-06-22 21:11:00,
2013-06-22 17:16:00,82.1,73.8,29.93,SE,134,0.0,4.0,76,0.00,,,0.00,WUHU216DAVISVP2,2013-06-22 21:16:00,
2013-06-22 17:22:00,81.9,73.6,29.92,South,188,2.0,4.0,76,0.00,,,0.00,WUHU216DAVISVP2,2013-06-22 21:22:00,
2013-06-22 17:27:00,81.6,73.7,29.91,South,184,0.0,3.0,77,0.00,,,0.00,WUHU216DAVISVP2,2013-06-22 21:27:00,
2013-06-22 17:32:00,81.6,73.7,29.91,South,187,0.0,2.0,77,0.00,,,0.00,WUHU216DAVISVP2,2013-06-22 21:32:00,
2013-06-22 17:37:00,81.7,74.2,29.91,South,186,1.0,2.0,78,0.00,,,0.00,WUHU216DAVISVP2,2013-06-22 21:37:00,
2013-06-22 17:42:00,81.7,74.2,29.91,South,186,2.0,2.0,78,0.00,,,0.00,WUHU216DAVISVP2,2013-06-22 21:42:00,
2013-06-22 17:47:00,81.6,73.1,29.91,South,185,0.0,4.0,75,0.00,,,0.00,WUHU216DAVISVP2,2013-06-22 21:47:00,
2013-06-22 17:52:00,81.6,73.5,29.92,South,190,3.0,4.0,76,0.00,,,0.00,WUHU216DAVISVP2,2013-06-22 21:52:00,
2013-06-22 17:57:00,81.6,74.6,29.92,NW,311,0.0,4.0,79,0.00,,,0.00,WUHU216DAVISVP2,2013-06-22 21:57:00,
2013-06-22 18:02:00,81.6,74.2,29.93,SE,142,0.0,3.0,78,0.00,,,0.00,WUHU216DAVISVP2,2013-06-22 22:02:00,
2013-06-22 18:07:00,81.6,74.2,29.93,SSE,167,1.0,6.0,78,0.00,,,0.00,WUHU216DAVISVP2,2013-06-22 22:07:00,
2013-06-22 18:12:00,81.6,73.7,29.93,SSE,165,1.0,6.0,77,0.00,,,0.00,WUHU216DAVISVP2,2013-06-22 22:12:00,
2013-06-22 18:17:00,81.4,73.9,29.93,South,178,4.0,5.0,78,0.00,,,0.00,WUHU216DAVISVP2,2013-06-22 22:17:00,
2013-06-22 18:22:00,81.3,73.8,29.93,South,176,1.0,5.0,78,0.00,,,0.00,WUHU216DAVISVP2,2013-06-22 22:22:00,
2013-06-22 18:27:00,81.2,74.6,29.93,South,176,0.0,4.0,80,0.00,,,0.00,WUHU216DAVISVP2,2013-06-22 22:27:00,
2013-06-22 18:32:00,81.2,74.6,29.93,SSW,209,3.0,5.0,80,0.00,,,0.00,WUHU216DAVISVP2,2013-06-22 22:32:00,
2013-06-22 18:37:00,81.1,74.5,29.93,WNW,285,4.0,5.0,80,0.00,,,0.00,WUHU216DAVISVP2,2013-06-22 22:37:00,
2013-06-22 18:42:00,80.9,74.3,29.93,SSE,159,1.0,7.0,80,0.00,,,0.00,WUHU216DAVISVP2,2013-06-22 22:42:00,
2013-06-22 18:47:00,80.8,74.2,29.94,WSW,242,0.0,7.0,80,0.00,,,0.00,WUHU216DAVISVP2,2013-06-22 22:47:00,
2013-06-22 18:52:00,80.7,74.1,29.95,WSW,249,1.0,4.0,80,0.00,,,0.00,WUHU216DAVISVP2,2013-06-22 22:52:00,
2013-06-22 18:57:00,80.6,74.0,29.94,WSW,243,1.0,4.0,80,0.00,,,0.00,WUHU216DAVISVP2,2013-06-22 22:57:00,
2013-06-22 19:02:00,80.4,74.1,29.95,ENE,67,1.0,3.0,81,0.00,,,0.00,WUHU216DAVISVP2,2013-06-22 23:02:00,
2013-06-22 19:07:00,80.1,74.2,29.95,WSW,254,0.0,3.0,82,0.00,,,0.00,WUHU216DAVISVP2,2013-06-22 23:07:00,
2013-06-22 19:12:00,79.8,73.5,29.95,SSE,148,2.0,6.0,81,0.00,,,0.00,WUHU216DAVISVP2,2013-06-22 23:12:00,
2013-06-22 19:17:00,79.5,72.5,29.94,SW,217,1.0,6.0,79,0.00,,,0.00,WUHU216DAVISVP2,2013-06-22 23:17:00,
2013-06-22 19:22:00,79.2,72.6,29.95,South,188,0.0,4.0,80,0.00,,,0.00,WUHU216DAVISVP2,2013-06-22 23:22:00,
2013-06-22 19:27:00,78.8,71.5,29.94,South,176,2.0,5.0,78,0.00,,,0.00,WUHU216DAVISVP2,2013-06-22 23:27:00,
2013-06-22 19:32:00,78.5,70.8,29.94,South,179,0.0,5.0,77,0.00,,,0.00,WUHU216DAVISVP2,2013-06-22 23:32:00,
2013-06-22 19:37:00,78.3,71.7,29.94,SSE,155,1.0,5.0,80,0.00,,,0.00,WUHU216DAVISVP2,2013-06-22 23:37:00,
2013-06-22 19:42:00,78.1,70.8,29.94,SSE,158,0.0,4.0,78,0.00,,,0.00,WUHU216DAVISVP2,2013-06-22 23:42:00,
2013-06-22 19:47:00,77.9,71.0,29.94,SSE,161,0.0,4.0,79,0.00,,,0.00,WUHU216DAVISVP2,2013-06-22 23:47:00,
2013-06-22 19:52:00,77.7,70.4,29.94,SSE,161,0.0,5.0,78,0.00,,,0.00,WUHU216DAVISVP2,2013-06-22 23:52:00,
2013-06-22 19:57:00,77.6,70.9,29.94,SSE,160,0.0,5.0,80,0.00,,,0.00,WUHU216DAVISVP2,2013-06-22 23:57:00,
2013-06-22 20:02:00,77.4,70.1,29.94,South,186,2.0,6.0,78,0.00,,,0.00,WUHU216DAVISVP2,2013-06-23 00:02:00,
2013-06-22 20:07:00,77.2,69.6,29.94,SSE,166,6.0,7.0,77,0.00,,,0.00,WUHU216DAVISVP2,2013-06-23 00:07:00,
2013-06-22 20:12:00,77.0,69.2,29.94,South,188,1.0,7.0,77,0.00,,,0.00,WUHU216DAVISVP2,2013-06-23 00:12:00,
2013-06-22 20:17:00,76.9,69.5,29.93,South,187,0.0,7.0,78,0.00,,,0.00,WUHU216DAVISVP2,2013-06-23 00:17:00,
2013-06-22 20:22:00,76.8,69.4,29.94,South,190,2.0,3.0,78,0.00,,,0.00,WUHU216DAVISVP2,2013-06-23 00:22:00,
2013-06-22 20:27:00,76.6,69.6,29.94,South,172,5.0,5.0,79,0.00,,,0.00,WUHU216DAVISVP2,2013-06-23 00:27:00,
2013-06-22 20:32:00,76.6,69.2,29.94,SE,126,1.0,7.0,78,0.00,,,0.00,WUHU216DAVISVP2,2013-06-23 00:32:00,
2013-06-22 20:37:00,76.5,69.1,29.94,SSW,195,0.0,7.0,78,0.00,,,0.00,WUHU216DAVISVP2,2013-06-23 00:37:00,
2013-06-22 20:42:00,76.4,69.0,29.94,West,280,2.0,6.0,78,0.00,,,0.00,WUHU216DAVISVP2,2013-06-23 00:42:00,
2013-06-22 20:47:00,76.3,69.7,29.94,SW,215,1.0,6.0,80,0.00,,,0.00,WUHU216DAVISVP2,2013-06-23 00:47:00,
2013-06-22 20:52:00,76.1,69.1,29.94,SSE,161,0.0,5.0,79,0.00,,,0.00,WUHU216DAVISVP2,2013-06-23 00:52:00,
2013-06-22 20:57:00,76.0,69.1,29.94,South,171,0.0,5.0,79,0.00,,,0.00,WUHU216DAVISVP2,2013-06-23 00:57:00,
2013-06-22 21:02:00,76.1,69.2,29.95,South,169,0.0,5.0,79,0.00,,,0.00,WUHU216DAVISVP2,2013-06-23 01:02:00,
2013-06-22 21:07:00,76.1,69.6,29.95,NNW,343,0.0,4.0,80,0.00,,,0.00,WUHU216DAVISVP2,2013-06-23 01:07:00,
2013-06-22 21:12:00,76.0,69.5,29.96,SW,234,0.0,1.0,80,0.00,,,0.00,WUHU216DAVISVP2,2013-06-23 01:12:00,
2013-06-22 21:17:00,75.9,69.4,29.96,South,182,0.0,4.0,80,0.00,,,0.00,WUHU216DAVISVP2,2013-06-23 01:17:00,
2013-06-22 21:22:00,75.7,69.2,29.96,SE,127,0.0,4.0,80,0.00,,,0.00,WUHU216DAVISVP2,2013-06-23 01:22:00,
2013-06-22 21:27:00,75.6,69.4,29.96,South,169,1.0,4.0,81,0.00,,,0.00,WUHU216DAVISVP2,2013-06-23 01:27:00,
2013-06-22 21:32:00,75.5,69.3,29.96,ESE,111,1.0,4.0,81,0.00,,,0.00,WUHU216DAVISVP2,2013-06-23 01:32:00,
2013-06-22 21:38:00,75.5,69.3,29.96,SSW,194,2.0,7.0,81,0.00,,,0.00,WUHU216DAVISVP2,2013-06-23 01:38:00,
2013-06-22 21:43:00,75.4,69.2,29.96,South,190,1.0,7.0,81,0.00,,,0.00,WUHU216DAVISVP2,2013-06-23 01:43:00,
2013-06-22 21:49:00,75.2,69.0,29.96,South,190,0.0,4.0,81,0.00,,,0.00,WUHU216DAVISVP2,2013-06-23 01:49:00,
2013-06-22 21:54:00,75.1,68.5,29.96,SSW,200,0.0,3.0,80,0.00,,,0.00,WUHU216DAVISVP2,2013-06-23 01:54:00,
2013-06-22 21:59:00,75.0,68.4,29.96,SSW,203,1.0,3.0,80,0.00,,,0.00,WUHU216DAVISVP2,2013-06-23 01:59:00,
2013-06-22 22:04:00,74.9,68.3,29.96,SSW,205,2.0,3.0,80,0.00,,,0.00,WUHU216DAVISVP2,2013-06-23 02:04:00,
2013-06-22 22:09:00,74.8,68.7,29.96,SSW,205,0.0,3.0,81,0.00,,,0.00,WUHU216DAVISVP2,2013-06-23 02:09:00,
2013-06-22 22:14:00,74.6,68.5,29.96,SSW,205,0.0,1.0,81,0.00,,,0.00,WUHU216DAVISVP2,2013-06-23 02:14:00,
2013-06-22 22:19:00,74.3,68.4,29.96,SSW,205,0.0,1.0,82,0.00,,,0.00,WUHU216DAVISVP2,2013-06-23 02:19:00,
2013-06-22 22:24:00,73.7,68.6,29.97,SSW,205,0.0,1.0,84,0.00,,,0.00,WUHU216DAVISVP2,2013-06-23 02:24:00,
2013-06-22 22:29:00,73.2,68.5,29.97,SSW,205,0.0,0.0,85,0.00,,,0.00,WUHU216DAVISVP2,2013-06-23 02:29:00,
2013-06-22 22:34:00,72.6,68.2,29.98,SSW,205,1.0,1.0,86,0.00,,,0.00,WUHU216DAVISVP2,2013-06-23 02:34:00,
2013-06-22 22:39:00,72.0,67.9,29.97,SSW,205,0.0,1.0,87,0.00,,,0.00,WUHU216DAVISVP2,2013-06-23 02:39:00,
2013-06-22 22:44:00,71.5,67.8,29.97,SSW,205,0.0,1.0,88,0.00,,,0.00,WUHU216DAVISVP2,2013-06-23 02:44:00,
2013-06-22 22:49:00,71.0,67.6,29.98,SSW,205,0.0,1.0,89,0.00,,,0.00,WUHU216DAVISVP2,2013-06-23 02:49:00,
2013-06-22 22:54:00,70.7,67.3,29.98,SSW,205,0.0,0.0,89,0.00,,,0.00,WUHU216DAVISVP2,2013-06-23 02:54:00,
2013-06-22 22:59:00,70.4,67.3,29.99,SSW,205,0.0,0.0,90,0.00,,,0.00,WUHU216DAVISVP2,2013-06-23 02:59:00,
2013-06-22 23:04:00,70.1,67.0,29.99,SSW,205,0.0,0.0,90,0.00,,,0.00,WUHU216DAVISVP2,2013-06-23 03:04:00,
2013-06-22 23:09:00,69.9,67.1,29.99,SSW,205,0.0,0.0,91,0.00,,,0.00,WUHU216DAVISVP2,2013-06-23 03:09:00,
2013-06-22 23:14:00,69.7,66.9,29.99,SSW,205,0.0,0.0,91,0.00,,,0.00,WUHU216DAVISVP2,2013-06-23 03:14:00,
2013-06-22 23:19:00,69.5,67.0,29.99,SSW,205,0.0,0.0,92,0.00,,,0.00,WUHU216DAVISVP2,2013-06-23 03:19:00,
2013-06-22 23:24:00,69.3,66.8,29.99,SSW,205,0.0,0.0,92,0.00,,,0.00,WUHU216DAVISVP2,2013-06-23 03:24:00,
2013-06-22 23:29:00,69.2,67.1,29.99,SSW,205,0.0,0.0,93,0.00,,,0.00,WUHU216DAVISVP2,2013-06-23 03:29:00,
2013-06-22 23:35:00,69.2,67.1,30.00,SSW,205,0.0,0.0,93,0.00,,,0.00,WUHU216DAVISVP2,2013-06-23 03:35:00,
2013-06-22 23:40:00,69.1,67.0,30.00,SSW,205,0.0,0.0,93,0.00,,,0.00,WUHU216DAVISVP2,2013-06-23 03:40:00,
2013-06-22 23:46:00,69.0,66.9,30.00,SSW,205,0.0,0.0,93,0.00,,,0.00,WUHU216DAVISVP2,2013-06-23 03:46:00,
2013-06-22 23:51:00,69.0,66.9,30.00,SSW,205,0.0,0.0,93,0.00,,,0.00,WUHU216DAVISVP2,2013-06-23 03:51:00,
2013-06-22 23:56:00,68.9,66.8,30.00,SSW,205,0.0,0.0,93,0.00,,,0.00,WUHU216DAVISVP2,2013-06-23 03:56:00,